Flight Track Log - Related Links

Times and Time Zones

All times are in EDT time to prevent confusion due to time zone crossing. See the RPA3159 flight status page for this flight to view local times or setup timezone preferences in your user account.

Time Position Orientation Groundspeed Altitude Reporting Facility
EDT Latitude Longitude Course Direction KTS MPH feet Rate Location/Type
Sat 11:35:52 AM 42.9167 -71.4167 274° West 158 182 1,100  Level KA90
Sat 11:36:41 AM 42.8667 -71.4500 206° Southwest 201 231 2,300 1,626 Climbing KA90
Sat 11:37:39 AM 42.8553 -71.5197 257° West 219 252 4,000 2,644 Climbing Boston Center
Sat 11:38:00 AM 42.9500 -71.9032 270° West  Level FlightAware Approximate
Sat 11:38:39 AM 42.8767 -71.6156 287° West 235 270 7,500  Level Boston Center
Sat 11:39:00 AM 42.9500 -72.0219 270° West  Level FlightAware Approximate
Sat 11:39:39 AM 42.9314 -71.6831 318° Northwest 237 273 9,500  Level Boston Center
Sat 11:40:00 AM 42.9501 -72.1407 270° West  Level FlightAware Approximate
Sat 11:40:39 AM 42.9550 -71.7906 287° West 269 310 11,300  Level Boston Center
Sat 11:41:00 AM 42.9520 -72.2595 274° West  Level FlightAware Approximate
Sat 11:41:39 AM 42.9578 -71.8983 272° West 305 351 13,700  Level Boston Center
Sat 11:42:39 AM 42.9625 -72.0372 273° West 326 375 15,900 2,100 Climbing Boston Center
Sat 11:43:39 AM 42.9647 -72.1536 272° West 337 388 17,900 5,050 Climbing Boston Center
Sat 11:44:39 AM 42.9714 -72.2983 274° West 348 400 26,000 1,950 Climbing Boston Center
Sat 11:45:39 AM 42.9797 -72.4203 275° West 353 406 21,800 -2,000 Descending Boston Center
Sat 11:46:39 AM 42.9817 -72.5564 271° West 353 406 22,000 600 Climbing Boston Center
Sat 11:47:39 AM 42.9794 -72.7042 269° West 353 406 23,000 850 Climbing Boston Center
Sat 11:48:39 AM 42.9833 -72.8431 272° West 360 414 23,700 500 Climbing Boston Center
Sat 11:49:39 AM 42.9847 -72.9878 271° West 366 421 24,000 550 Climbing Boston Center
Sat 11:50:39 AM 42.9925 -73.1128 275° West 374 430 24,800 1,000 Climbing Boston Center
Sat 11:51:39 AM 42.9956 -73.2606 272° West 379 436 26,000 600 Climbing Boston Center
Sat 11:52:39 AM 42.9569 -73.4075 250° West 377 434 26,000  Level Boston Center
Sat 11:53:39 AM 42.8892 -73.5339 234° Southwest 383 441 26,000  Level Boston Center
Sat 11:54:39 AM 42.8317 -73.6547 237° Southwest 408 470 26,000  Level Boston Center
Sat 11:55:39 AM 42.7531 -73.7917 232° Southwest 420 483 26,000  Level Boston Center
Sat 11:56:39 AM 42.6889 -73.9231 236° Southwest 426 490 26,000 -50 Level Boston Center
Sat 11:57:39 AM 42.6244 -74.0542 236° Southwest 419 482 25,900 -300 Descending Boston Center
Sat 11:58:39 AM 42.5706 -74.1739 239° Southwest 419 482 25,400 -750 Descending Boston Center
Sat 11:59:39 AM 42.5103 -74.2989 237° Southwest 419 482 24,400 -950 Descending Boston Center
Sat 12:00:39 PM 42.4456 -74.4236 235° Southwest 409 471 23,500 -800 Descending Boston Center
Sat 12:01:39 PM 42.3850 -74.5428 236° Southwest 403 464 22,800 -726 Descending Boston Center
Sat 12:03:16 PM 42.2903 -74.7292 236° Southwest 409 471 21,600 -835 Descending New York Center
Sat 12:04:17 PM 42.2344 -74.8461 237° Southwest 398 458 20,600 -992 Descending New York Center
Sat 12:05:17 PM 42.1742 -74.9597 234° Southwest 387 445 19,600 -814 Descending New York Center
Sat 12:06:15 PM 42.0775 -75.0458 213° Southwest 373 429 19,000 -305 Descending New York Center
Sat 12:07:15 PM 41.9897 -75.1156 211° Southwest 379 436 19,000  Level New York Center
Sat 12:08:15 PM 41.9122 -75.1800 212° Southwest 379 436 19,000 -446 Level New York Center
Sat 12:09:16 PM 41.8136 -75.2569 210° Southwest 379 436 18,100 -984 Descending New York Center
Sat 12:10:17 PM 41.7278 -75.3261 211° Southwest 374 430 17,000 -1,377 Descending New York Center
Sat 12:11:18 PM 41.6461 -75.3928 211° Southwest 361 415 15,300 -1,513 Descending New York Center
Sat 12:12:16 PM 41.5750 -75.4517 212° Southwest 349 402 14,000 -1,322 Descending New York Center
Sat 12:13:16 PM 41.4933 -75.5153 210° Southwest 349 402 12,700 -1,000 Descending New York Center
Sat 12:14:16 PM 41.4072 -75.5839 211° Southwest 349 402 12,000 -347 Descending New York Center
Sat 12:15:17 PM 41.3253 -75.6497 211° Southwest 349 402 12,000  Level New York Center
Sat 12:16:17 PM 41.2406 -75.6878 199° South 344 396 12,000  Level New York Center
Sat 12:17:18 PM 41.1542 -75.6622 167° South 310 357 12,000  Level New York Center
Sat 12:18:16 PM 41.0719 -75.6342 166° South 335 386 12,000  Level New York Center
Sat 12:19:16 PM 40.9733 -75.6025 166° South 335 386 12,000  Level New York Center
Sat 12:20:15 PM 40.8828 -75.5742 167° South 335 386 12,000  Level New York Center
Sat 12:21:15 PM 40.7922 -75.5431 165° South 330 380 12,000 -200 Level New York Center
Sat 12:22:15 PM 40.7019 -75.5122 165° South 339 390 11,600 -446 Descending New York Center
Sat 12:23:16 PM 40.6133 -75.4842 166° South 334 384 11,100 -545 Descending New York Center
Sat 12:24:16 PM 40.5269 -75.4564 166° South 334 384 10,500 -500 Descending New York Center
Sat 12:25:16 PM 40.4589 -75.4353 167° South 307 353 10,100 -450 Descending New York Center
Sat 12:26:16 PM 40.3897 -75.3981 158° South 284 327 9,600 -694 Descending New York Center
Sat 12:27:17 PM 40.3117 -75.3683 164° South 265 305 8,700 -893 Descending New York Center
Sat 12:28:17 PM 40.2419 -75.3908 194° South 253 291 7,800 -850 Descending New York Center
Sat 12:29:17 PM 40.1786 -75.4139 196° South 271 312 7,000 -508 Descending New York Center
Sat 12:30:15 PM 40.1044 -75.4386 194° South 264 304 6,800 -403 Descending New York Center
Sat 12:31:16 PM 40.0517 -75.4569 195° South 236 272 6,200 -347 Descending New York Center
Sat 12:32:16 PM 39.9986 -75.4775 197° South 203 234 6,100 -50 Descending New York Center
Sat 12:33:16 PM 39.9564 -75.4939 197° South 185 213 6,100 -50 Level New York Center
Sat 12:34:17 PM 39.9075 -75.5175 200° South 178 205 6,000 -504 Descending New York Center
Sat 12:35:15 PM 39.8650 -75.5389 201° Southwest 178 205 5,100 -1,261 Descending New York Center
Sat 12:36:16 PM 39.8192 -75.5386 180° South 167 192 3,500 -1,095 Descending New York Center
Sat 12:37:21 PM 39.8167 -75.4667 93° East 195 224 2,800 -646 Descending Philadelphia TRACON

Login

Don't have an account? Register now (free) for customized features, flight alerts, and more!